Time;durP1;ratioP1;P1;durP2;ratioP2;P2;SDS_P1;SDS_P2;PMS_P1;PMS_P2;Temp;Humidity;BMP_temperature;BMP_pressure;BME280_temperature;BME280_humidity;BME280_pressure;Samples;Min_cycle;Max_cycle;Signal;HPM_P1;HPM_P2
2024/01/31 00:02:24;;;;;;;;;;;5.30;99.90;;;;;;5022118;28;20518;-63
2024/01/31 00:04:49;;;;;;;;;;;5.30;99.90;;;;;;5039872;28;19932;-64
2024/01/31 00:07:15;;;;;;;;;;;5.30;99.90;;;;;;5014982;28;20386;-64
2024/01/31 00:09:40;;;;;;;;;;;5.30;99.90;;;;;;5020462;28;20293;-64
2024/01/31 00:12:06;;;;;;;;;;;5.30;99.90;;;;;;5019406;28;19925;-63
2024/01/31 00:14:32;;;;;;;;;;;5.30;99.90;;;;;;5038069;28;19921;-64
2024/01/31 00:16:58;;;;;;;;;;;5.30;99.90;;;;;;5040544;28;19964;-64
2024/01/31 00:19:24;;;;;;;;;;;5.30;99.90;;;;;;5003107;28;19925;-63
2024/01/31 00:21:49;;;;;;;;;;;5.30;99.90;;;;;;5037089;28;20432;-63
2024/01/31 00:24:15;;;;;;;;;;;5.30;99.90;;;;;;5002978;28;19978;-63
2024/01/31 00:26:40;;;;;;;;;;;5.30;99.90;;;;;;5038114;28;19916;-64
2024/01/31 00:29:06;;;;;;;;;;;5.30;99.90;;;;;;5038551;28;19920;-65
2024/01/31 00:31:33;;;;;;;;;;;5.30;99.90;;;;;;5037422;28;19920;-63
2024/01/31 00:33:58;;;;;;;;;;;5.30;99.90;;;;;;5040148;28;20401;-63
2024/01/31 00:36:24;;;;;;;;;;;5.30;99.90;;;;;;5016381;28;19921;-63
2024/01/31 00:38:49;;;;;;;;;;;5.40;99.90;;;;;;5034459;28;19924;-63
2024/01/31 00:41:15;;;;;;;;;;;5.30;99.90;;;;;;5019534;28;19916;-63
2024/01/31 00:43:40;;;;;;;;;;;5.30;99.90;;;;;;5035570;28;19948;-63
2024/01/31 00:46:06;;;;;;;;;;;5.30;99.90;;;;;;5036293;28;20023;-64
2024/01/31 00:48:32;;;;;;;;;;;5.40;99.90;;;;;;5034064;28;20433;-63
2024/01/31 00:50:58;;;;;;;;;;;5.30;99.90;;;;;;5019255;28;19932;-63
2024/01/31 00:53:24;;;;;;;;;;;5.30;99.90;;;;;;5040496;28;19917;-64
2024/01/31 00:55:49;;;;;;;;;;;5.30;99.90;;;;;;5033315;28;20951;-63
2024/01/31 00:58:15;;;;;;;;;;;5.30;99.90;;;;;;5020311;28;19924;-64
2024/01/31 01:00:40;;;;;;;;;;;5.30;99.90;;;;;;5039600;28;19917;-64
2024/01/31 01:03:06;;;;;;;;;;;5.30;99.90;;;;;;5036480;28;19960;-64
2024/01/31 01:05:31;;;;;;;;;;;5.30;99.90;;;;;;5037378;28;19959;-63
2024/01/31 01:07:57;;;;;;;;;;;5.30;99.90;;;;;;5033645;28;20337;-63
2024/01/31 01:10:22;;;;;;;;;;;5.20;99.90;;;;;;5038515;28;20286;-63
2024/01/31 01:12:48;;;;;;;;;;;5.30;99.90;;;;;;5036776;28;19925;-64
2024/01/31 01:15:18;;;;;;;;;;;5.30;99.90;;;;;;5021838;28;20336;-64
2024/01/31 01:17:43;;;;;;;;;;;5.30;99.90;;;;;;5036234;28;20263;-63
2024/01/31 01:20:09;;;;;;;;;;;5.30;99.90;;;;;;5041197;28;20404;-64
2024/01/31 01:22:34;;;;;;;;;;;5.30;99.90;;;;;;5040252;28;19954;-64
2024/01/31 01:25:00;;;;;;;;;;;5.20;99.90;;;;;;5035613;28;19920;-64
2024/01/31 01:27:25;;;;;;;;;;;5.20;99.90;;;;;;5037770;28;20347;-63
2024/01/31 01:29:51;;;;;;;;;;;5.20;99.90;;;;;;5019353;28;19920;-64
2024/01/31 01:32:16;;;;;;;;;;;5.20;99.90;;;;;;5040900;28;19921;-64
2024/01/31 01:34:42;;;;;;;;;;;5.20;99.90;;;;;;5035516;28;19921;-64
2024/01/31 01:37:08;;;;;;;;;;;5.20;99.90;;;;;;5053278;28;19975;-64
2024/01/31 01:39:37;;;;;;;;;;;5.20;99.90;;;;;;5036887;28;20011;-63
2024/01/31 01:42:03;;;;;;;;;;;5.10;99.90;;;;;;5037906;28;20330;-63
2024/01/31 01:44:32;;;;;;;;;;;5.10;99.90;;;;;;5021276;28;19929;-64
2024/01/31 01:46:58;;;;;;;;;;;5.10;99.90;;;;;;5036432;28;19951;-63
2024/01/31 01:49:24;;;;;;;;;;;5.10;99.90;;;;;;5037682;28;20108;-64
2024/01/31 01:51:50;;;;;;;;;;;5.00;99.90;;;;;;5037456;28;20475;-64
2024/01/31 01:54:15;;;;;;;;;;;5.00;99.90;;;;;;5036526;28;19921;-64
2024/01/31 01:56:43;;;;;;;;;;;5.00;99.90;;;;;;5038823;28;20779;-63
2024/01/31 01:59:09;;;;;;;;;;;4.90;99.90;;;;;;5039226;28;19944;-64
2024/01/31 02:01:36;;;;;;;;;;;5.00;99.90;;;;;;5019267;28;20382;-63
2024/01/31 02:04:03;;;;;;;;;;;4.90;99.90;;;;;;5035213;28;20496;-63
2024/01/31 02:06:29;;;;;;;;;;;4.90;99.90;;;;;;5037354;28;20294;-64
2024/01/31 02:08:54;;;;;;;;;;;4.90;99.90;;;;;;5035058;28;19947;-64
2024/01/31 02:11:20;;;;;;;;;;;4.80;99.90;;;;;;5039596;28;20028;-64
2024/01/31 02:13:45;;;;;;;;;;;4.80;99.90;;;;;;5017917;28;19920;-64
2024/01/31 02:16:12;;;;;;;;;;;4.80;99.90;;;;;;5036637;28;20023;-64
2024/01/31 02:18:38;;;;;;;;;;;4.80;99.90;;;;;;5019857;28;19952;-64
2024/01/31 02:21:03;;;;;;;;;;;4.80;99.90;;;;;;5037061;28;20003;-63
2024/01/31 02:23:29;;;;;;;;;;;4.70;99.90;;;;;;5039634;28;20432;-63
2024/01/31 02:25:54;;;;;;;;;;;4.70;99.90;;;;;;4996647;28;19924;-63
2024/01/31 02:28:20;;;;;;;;;;;4.70;99.90;;;;;;5035432;28;20382;-64
2024/01/31 02:30:45;;;;;;;;;;;4.70;99.90;;;;;;5038715;28;20685;-63
2024/01/31 02:33:11;;;;;;;;;;;4.60;99.90;;;;;;5020056;28;19921;-63
2024/01/31 02:35:37;;;;;;;;;;;4.60;99.90;;;;;;5038172;28;19927;-64
2024/01/31 02:38:02;;;;;;;;;;;4.70;99.90;;;;;;5034285;28;19963;-63
2024/01/31 02:40:31;;;;;;;;;;;4.60;99.90;;;;;;5021636;28;20325;-64
2024/01/31 02:42:57;;;;;;;;;;;4.50;99.90;;;;;;5036244;28;19924;-63
2024/01/31 02:45:23;;;;;;;;;;;4.50;99.90;;;;;;5050255;28;20018;-64
2024/01/31 02:47:48;;;;;;;;;;;4.50;99.90;;;;;;5039098;28;20044;-63
2024/01/31 02:50:14;;;;;;;;;;;4.50;99.90;;;;;;5035400;28;19925;-64
2024/01/31 02:52:39;;;;;;;;;;;4.50;99.90;;;;;;5035099;28;19971;-63
2024/01/31 02:55:05;;;;;;;;;;;4.50;99.90;;;;;;5001860;28;19978;-64
2024/01/31 02:57:31;;;;;;;;;;;4.40;99.90;;;;;;5031647;28;20366;-64
2024/01/31 02:59:56;;;;;;;;;;;4.40;99.90;;;;;;5032580;28;19947;-63
2024/01/31 03:02:22;;;;;;;;;;;4.40;99.90;;;;;;5017071;28;19917;-64
2024/01/31 03:04:48;;;;;;;;;;;4.40;99.90;;;;;;5033620;28;19935;-63
2024/01/31 03:07:13;;;;;;;;;;;4.40;99.90;;;;;;5027891;28;19928;-64
2024/01/31 03:09:39;;;;;;;;;;;4.40;99.90;;;;;;5033015;28;19917;-64
2024/01/31 03:12:07;;;;;;;;;;;4.40;99.90;;;;;;5031675;28;20483;-64
2024/01/31 03:14:33;;;;;;;;;;;4.40;99.90;;;;;;5033400;28;19977;-63
2024/01/31 03:16:59;;;;;;;;;;;4.40;99.90;;;;;;5012637;28;19916;-64
2024/01/31 03:19:24;;;;;;;;;;;4.40;99.90;;;;;;5032965;28;19921;-64
2024/01/31 03:21:50;;;;;;;;;;;4.40;99.90;;;;;;5033767;28;19921;-64
2024/01/31 03:24:15;;;;;;;;;;;4.40;99.90;;;;;;5028630;28;20151;-64
2024/01/31 03:26:41;;;;;;;;;;;4.40;99.90;;;;;;4998943;28;20015;-63
2024/01/31 03:29:08;;;;;;;;;;;4.40;99.90;;;;;;5032521;28;19928;-63
2024/01/31 03:31:33;;;;;;;;;;;4.40;99.90;;;;;;5013602;28;19920;-63
2024/01/31 03:33:59;;;;;;;;;;;4.40;99.90;;;;;;5032352;28;19947;-64
2024/01/31 03:36:24;;;;;;;;;;;4.40;99.90;;;;;;5032039;28;20768;-63
2024/01/31 03:38:50;;;;;;;;;;;4.40;99.90;;;;;;5015045;28;19931;-64
2024/01/31 03:41:15;;;;;;;;;;;4.40;99.90;;;;;;5012911;28;20386;-64
2024/01/31 03:43:41;;;;;;;;;;;4.40;99.90;;;;;;5031936;28;20458;-64
2024/01/31 03:46:07;;;;;;;;;;;4.40;99.90;;;;;;5029522;28;19921;-64
2024/01/31 03:48:33;;;;;;;;;;;4.50;99.90;;;;;;5027204;28;19917;-64
2024/01/31 03:50:58;;;;;;;;;;;4.40;99.90;;;;;;5033720;28;19920;-64
2024/01/31 03:53:24;;;;;;;;;;;4.40;99.90;;;;;;5012277;28;19917;-63
2024/01/31 03:55:50;;;;;;;;;;;4.40;99.90;;;;;;5030414;28;19967;-64
2024/01/31 03:58:15;;;;;;;;;;;4.40;99.90;;;;;;5032022;28;19920;-63
2024/01/31 04:00:42;;;;;;;;;;;4.40;99.90;;;;;;5028903;28;19928;-64
2024/01/31 04:03:07;;;;;;;;;;;4.40;99.90;;;;;;5028602;28;19924;-63
2024/01/31 04:05:33;;;;;;;;;;;4.40;99.90;;;;;;5035567;28;19936;-63
2024/01/31 04:07:58;;;;;;;;;;;4.30;99.90;;;;;;5032333;28;20481;-63
2024/01/31 04:10:24;;;;;;;;;;;4.40;99.90;;;;;;5032841;28;19962;-63
2024/01/31 04:12:50;;;;;;;;;;;4.30;99.90;;;;;;5009953;28;19928;-63
2024/01/31 04:15:16;;;;;;;;;;;4.30;99.90;;;;;;5014465;28;19917;-64
2024/01/31 04:17:42;;;;;;;;;;;4.30;99.90;;;;;;5035277;28;19920;-63
2024/01/31 04:20:08;;;;;;;;;;;4.10;99.90;;;;;;5032187;28;20352;-64
2024/01/31 04:22:34;;;;;;;;;;;4.10;99.90;;;;;;5032802;28;19959;-64
2024/01/31 04:24:59;;;;;;;;;;;4.00;99.90;;;;;;5034317;28;20300;-63
2024/01/31 04:27:25;;;;;;;;;;;4.00;99.90;;;;;;5030740;28;19923;-63
2024/01/31 04:29:50;;;;;;;;;;;3.90;99.90;;;;;;5033386;28;19924;-63
2024/01/31 04:32:16;;;;;;;;;;;3.90;99.90;;;;;;5033635;28;19944;-63
2024/01/31 04:34:42;;;;;;;;;;;3.80;99.90;;;;;;5033469;28;20586;-63
2024/01/31 04:37:07;;;;;;;;;;;3.80;99.90;;;;;;5033521;28;20003;-63
2024/01/31 04:39:33;;;;;;;;;;;3.80;99.90;;;;;;5031717;28;20914;-64
2024/01/31 04:41:59;;;;;;;;;;;3.70;99.90;;;;;;5037075;28;19928;-63
2024/01/31 04:44:25;;;;;;;;;;;3.70;99.90;;;;;;5032313;28;20383;-64
2024/01/31 04:46:51;;;;;;;;;;;3.70;99.90;;;;;;5018123;28;19921;-63
2024/01/31 04:49:16;;;;;;;;;;;3.60;99.90;;;;;;5037284;28;19913;-64
2024/01/31 04:51:42;;;;;;;;;;;3.60;99.90;;;;;;5036382;28;19925;-64
2024/01/31 04:54:08;;;;;;;;;;;3.60;99.90;;;;;;5038434;28;20985;-63
2024/01/31 04:56:34;;;;;;;;;;;3.60;99.90;;;;;;5033755;28;20043;-63
2024/01/31 04:58:59;;;;;;;;;;;3.60;99.90;;;;;;5032671;28;19970;-64
2024/01/31 05:01:25;;;;;;;;;;;3.60;99.90;;;;;;5036249;28;19987;-63
2024/01/31 05:03:50;;;;;;;;;;;3.70;99.90;;;;;;5023332;28;19939;-63
2024/01/31 05:06:16;;;;;;;;;;;3.60;99.90;;;;;;5039146;28;19998;-63
2024/01/31 05:08:41;;;;;;;;;;;3.60;99.90;;;;;;5002471;28;19927;-64
2024/01/31 05:11:07;;;;;;;;;;;3.50;99.90;;;;;;5037720;28;19956;-63
2024/01/31 05:13:32;;;;;;;;;;;3.50;99.90;;;;;;5036595;28;19921;-63
2024/01/31 05:15:58;;;;;;;;;;;3.50;99.90;;;;;;5037504;28;19974;-64
2024/01/31 05:18:23;;;;;;;;;;;3.60;99.90;;;;;;5018860;28;19959;-63
2024/01/31 05:20:49;;;;;;;;;;;3.60;99.90;;;;;;5038830;28;19963;-63
2024/01/31 05:23:14;;;;;;;;;;;3.60;99.90;;;;;;5031368;28;20453;-63
2024/01/31 05:25:40;;;;;;;;;;;3.60;99.90;;;;;;5036574;28;19925;-63
2024/01/31 05:28:05;;;;;;;;;;;3.60;99.90;;;;;;5015667;28;19925;-64
2024/01/31 05:30:31;;;;;;;;;;;3.70;99.90;;;;;;5014078;28;19990;-64
2024/01/31 05:32:57;;;;;;;;;;;3.70;99.90;;;;;;5038691;28;19963;-63
2024/01/31 05:35:22;;;;;;;;;;;3.70;99.90;;;;;;5017935;28;19952;-64
2024/01/31 05:37:48;;;;;;;;;;;3.70;99.90;;;;;;5035268;28;19924;-63
2024/01/31 05:40:16;;;;;;;;;;;3.70;99.90;;;;;;5037170;28;19913;-64
2024/01/31 05:42:42;;;;;;;;;;;3.70;99.90;;;;;;5034683;28;19925;-63
2024/01/31 05:45:08;;;;;;;;;;;3.70;99.90;;;;;;5039458;28;19994;-64
2024/01/31 05:47:33;;;;;;;;;;;3.70;99.90;;;;;;5033550;28;19920;-64
2024/01/31 05:49:59;;;;;;;;;;;3.70;99.90;;;;;;5035692;28;19956;-63
2024/01/31 05:52:24;;;;;;;;;;;3.80;99.90;;;;;;5033442;28;19923;-64
2024/01/31 05:54:50;;;;;;;;;;;3.80;99.90;;;;;;5016151;28;19927;-63
2024/01/31 05:57:15;;;;;;;;;;;3.80;99.90;;;;;;5022844;28;19924;-64
2024/01/31 05:59:41;;;;;;;;;;;3.80;99.90;;;;;;5037916;28;19921;-63
2024/01/31 06:02:07;;;;;;;;;;;3.80;99.90;;;;;;5037325;28;19925;-64
2024/01/31 06:04:33;;;;;;;;;;;3.90;99.90;;;;;;5045535;28;19963;-64
2024/01/31 06:06:58;;;;;;;;;;;3.90;99.90;;;;;;5017579;28;19976;-63
2024/01/31 06:09:24;;;;;;;;;;;3.90;99.90;;;;;;5039241;28;19929;-63
2024/01/31 06:11:49;;;;;;;;;;;3.90;99.90;;;;;;5004722;28;19969;-63
2024/01/31 06:14:15;;;;;;;;;;;3.90;99.90;;;;;;5039326;28;20004;-64
2024/01/31 06:16:41;;;;;;;;;;;3.90;99.90;;;;;;5037609;28;19924;-63
2024/01/31 06:19:08;;;;;;;;;;;3.90;99.90;;;;;;5032870;28;19912;-64
2024/01/31 06:21:34;;;;;;;;;;;4.00;99.90;;;;;;5033395;28;20007;-63
2024/01/31 06:23:59;;;;;;;;;;;4.00;99.90;;;;;;5040140;28;19927;-64
2024/01/31 06:26:28;;;;;;;;;;;4.00;99.90;;;;;;5036088;28;20385;-64
2024/01/31 06:28:53;;;;;;;;;;;4.00;99.90;;;;;;5019409;28;20021;-63
2024/01/31 06:31:27;;;;;;;;;;;4.00;99.90;;;;;;5011644;28;20007;-64
2024/01/31 06:33:53;;;;;;;;;;;4.10;99.90;;;;;;5018055;28;19936;-64
2024/01/31 06:36:19;;;;;;;;;;;4.00;99.90;;;;;;5038622;28;19921;-64
2024/01/31 06:38:45;;;;;;;;;;;4.10;99.90;;;;;;5035387;28;20003;-64
2024/01/31 06:41:14;;;;;;;;;;;4.00;99.90;;;;;;5034649;28;19927;-63
2024/01/31 06:43:40;;;;;;;;;;;4.00;99.90;;;;;;5033401;28;19964;-64
2024/01/31 06:46:05;;;;;;;;;;;4.10;99.90;;;;;;5013003;28;20031;-64
2024/01/31 06:48:31;;;;;;;;;;;4.10;99.90;;;;;;5016721;28;19967;-63
2024/01/31 06:50:56;;;;;;;;;;;4.00;99.90;;;;;;5023123;28;20015;-63
2024/01/31 06:53:22;;;;;;;;;;;4.10;99.90;;;;;;5033105;28;19924;-64
2024/01/31 06:55:47;;;;;;;;;;;4.10;99.90;;;;;;5033820;28;20048;-64
2024/01/31 06:58:13;;;;;;;;;;;4.10;99.90;;;;;;4999330;28;19932;-64
2024/01/31 07:00:38;;;;;;;;;;;4.00;99.90;;;;;;5014843;28;20303;-64
2024/01/31 07:03:04;;;;;;;;;;;4.10;99.90;;;;;;5036850;28;19917;-59
2024/01/31 07:05:29;;;;;;;;;;;4.10;99.90;;;;;;5037058;28;19964;-59
2024/01/31 07:07:55;;;;;;;;;;;4.10;99.90;;;;;;5038723;28;19963;-60
2024/01/31 07:10:20;;;;;;;;;;;4.10;99.90;;;;;;5038971;28;19947;-59
2024/01/31 07:12:46;;;;;;;;;;;4.10;99.90;;;;;;5036703;28;19921;-58
2024/01/31 07:15:12;;;;;;;;;;;4.10;99.90;;;;;;5034471;28;20341;-58
2024/01/31 07:17:37;;;;;;;;;;;4.10;99.90;;;;;;5032914;28;20440;-59
2024/01/31 07:20:03;;;;;;;;;;;4.10;99.90;;;;;;5038741;28;19925;-59
2024/01/31 07:22:29;;;;;;;;;;;4.10;99.90;;;;;;5035338;28;19916;-58
2024/01/31 07:24:54;;;;;;;;;;;4.10;99.90;;;;;;5038133;28;19921;-58
2024/01/31 07:27:20;;;;;;;;;;;4.20;99.90;;;;;;5038724;28;20011;-59
2024/01/31 07:29:48;;;;;;;;;;;4.10;99.90;;;;;;5018379;28;19924;-60
2024/01/31 07:32:14;;;;;;;;;;;4.10;99.90;;;;;;5034533;28;20011;-60
2024/01/31 07:34:39;;;;;;;;;;;4.10;99.90;;;;;;5038037;28;19966;-60
2024/01/31 07:37:05;;;;;;;;;;;4.20;99.90;;;;;;5037008;28;20410;-57
2024/01/31 07:39:31;;;;;;;;;;;4.20;99.90;;;;;;5039683;28;20027;-59
2024/01/31 07:41:57;;;;;;;;;;;4.20;99.90;;;;;;5038457;28;20038;-58
2024/01/31 07:44:22;;;;;;;;;;;4.20;99.90;;;;;;5037046;28;19925;-60
2024/01/31 07:46:48;;;;;;;;;;;4.20;99.90;;;;;;5036701;28;19920;-58
2024/01/31 07:49:13;;;;;;;;;;;4.20;99.90;;;;;;5034884;28;19931;-59
2024/01/31 07:51:42;;;;;;;;;;;4.20;99.90;;;;;;5029420;28;19921;-58
2024/01/31 07:54:08;;;;;;;;;;;4.20;99.90;;;;;;5038118;28;20306;-59
2024/01/31 07:56:33;;;;;;;;;;;4.20;99.90;;;;;;5037029;28;19931;-59
2024/01/31 07:58:59;;;;;;;;;;;4.30;99.90;;;;;;5036968;28;19924;-60
2024/01/31 08:01:24;;;;;;;;;;;4.30;99.90;;;;;;5036020;28;19928;-59
2024/01/31 08:03:50;;;;;;;;;;;4.30;99.90;;;;;;5036569;28;19917;-59
2024/01/31 08:06:15;;;;;;;;;;;4.30;99.90;;;;;;5035172;28;19960;-59
2024/01/31 08:08:45;;;;;;;;;;;4.30;99.90;;;;;;5022208;28;20013;-59
2024/01/31 08:11:11;;;;;;;;;;;4.30;99.90;;;;;;5037737;28;19921;-59
2024/01/31 08:13:39;;;;;;;;;;;4.30;99.90;;;;;;5037928;28;19924;-58
2024/01/31 08:16:05;;;;;;;;;;;4.40;99.90;;;;;;5037964;28;19951;-59
2024/01/31 08:18:31;;;;;;;;;;;4.40;99.90;;;;;;5040199;28;19917;-60
2024/01/31 08:20:56;;;;;;;;;;;4.40;99.90;;;;;;5038930;28;20270;-59
2024/01/31 08:23:23;;;;;;;;;;;4.40;99.90;;;;;;5039675;28;19916;-59
2024/01/31 08:25:48;;;;;;;;;;;4.50;99.90;;;;;;5037410;28;20637;-59
2024/01/31 08:28:14;;;;;;;;;;;4.50;99.90;;;;;;5024022;28;19933;-59
2024/01/31 08:30:39;;;;;;;;;;;4.50;99.90;;;;;;5041534;28;19931;-58
2024/01/31 08:33:05;;;;;;;;;;;4.50;99.90;;;;;;5035628;28;19943;-59
2024/01/31 08:35:30;;;;;;;;;;;4.50;99.90;;;;;;5041588;28;19925;-59
2024/01/31 08:37:56;;;;;;;;;;;4.50;99.90;;;;;;5041797;28;19921;-60
2024/01/31 08:40:21;;;;;;;;;;;4.60;99.90;;;;;;5042405;28;20298;-60
2024/01/31 08:42:47;;;;;;;;;;;4.60;99.90;;;;;;5042856;28;19932;-60
2024/01/31 08:45:13;;;;;;;;;;;4.60;99.90;;;;;;5036997;28;20298;-59
2024/01/31 08:47:39;;;;;;;;;;;4.60;99.90;;;;;;5033403;28;19924;-59
2024/01/31 08:50:05;;;;;;;;;;;4.60;99.90;;;;;;5042040;28;19921;-60
2024/01/31 08:52:30;;;;;;;;;;;4.70;99.90;;;;;;5040506;28;19927;-59
2024/01/31 08:54:56;;;;;;;;;;;4.70;99.90;;;;;;5041275;28;19920;-59
2024/01/31 08:57:21;;;;;;;;;;;4.70;99.90;;;;;;5017868;28;20286;-59
2024/01/31 08:59:47;;;;;;;;;;;4.80;99.90;;;;;;5038553;28;20452;-58
2024/01/31 09:02:12;;;;;;;;;;;4.80;99.90;;;;;;5014311;28;19913;-59
2024/01/31 09:04:38;;;;;;;;;;;4.80;99.90;;;;;;5037505;28;19925;-59
2024/01/31 09:07:03;;;;;;;;;;;4.80;99.90;;;;;;5035791;28;19921;-59
2024/01/31 09:09:30;;;;;;;;;;;4.90;99.90;;;;;;5017126;28;19917;-60
2024/01/31 09:11:56;;;;;;;;;;;4.90;99.90;;;;;;5036792;28;20028;-60
2024/01/31 09:14:21;;;;;;;;;;;5.00;99.90;;;;;;5022026;28;20383;-59
2024/01/31 09:16:47;;;;;;;;;;;5.00;99.90;;;;;;5035946;28;19928;-60
2024/01/31 09:19:12;;;;;;;;;;;5.10;99.90;;;;;;5037052;28;19917;-59
2024/01/31 09:21:38;;;;;;;;;;;5.10;99.90;;;;;;5040386;28;20383;-60
2024/01/31 09:24:03;;;;;;;;;;;5.10;99.90;;;;;;5036183;28;20473;-59
2024/01/31 09:26:29;;;;;;;;;;;5.10;99.90;;;;;;5036173;28;20272;-60
2024/01/31 09:28:55;;;;;;;;;;;5.20;99.90;;;;;;5004057;28;19975;-59
2024/01/31 09:31:22;;;;;;;;;;;5.30;99.90;;;;;;5016814;28;19932;-59
2024/01/31 09:33:48;;;;;;;;;;;5.30;99.90;;;;;;5019191;28;20028;-58
2024/01/31 09:36:14;;;;;;;;;;;5.30;99.90;;;;;;5016833;28;19921;-59
2024/01/31 09:38:39;;;;;;;;;;;5.30;99.90;;;;;;5017379;28;19940;-58
2024/01/31 09:41:05;;;;;;;;;;;5.30;99.90;;;;;;5015708;28;19921;-58
2024/01/31 09:43:31;;;;;;;;;;;5.30;99.90;;;;;;5016420;28;20346;-59
2024/01/31 09:45:56;;;;;;;;;;;5.30;99.90;;;;;;5017859;28;20055;-57
2024/01/31 09:48:23;;;;;;;;;;;5.40;99.90;;;;;;5018035;28;20360;-58
2024/01/31 09:50:48;;;;;;;;;;;5.40;99.90;;;;;;5016670;28;19925;-59
2024/01/31 09:53:14;;;;;;;;;;;5.40;99.90;;;;;;5017913;28;20229;-59
2024/01/31 09:55:41;;;;;;;;;;;5.50;99.90;;;;;;5017216;28;19964;-59
2024/01/31 09:58:06;;;;;;;;;;;5.40;99.90;;;;;;5020624;28;20356;-59
2024/01/31 10:00:32;;;;;;;;;;;5.50;99.90;;;;;;4999492;28;26923;-60
2024/01/31 10:02:58;;;;;;;;;;;5.40;99.90;;;;;;5017147;28;20178;-58
2024/01/31 10:05:23;;;;;;;;;;;5.50;99.90;;;;;;4999193;28;19960;-59
2024/01/31 10:07:49;;;;;;;;;;;5.50;99.90;;;;;;5017235;28;19925;-59
2024/01/31 10:10:15;;;;;;;;;;;5.50;99.90;;;;;;5015179;28;19925;-60
2024/01/31 10:12:40;;;;;;;;;;;5.60;99.90;;;;;;5020058;28;19917;-59
2024/01/31 10:15:09;;;;;;;;;;;5.60;99.90;;;;;;5017670;28;20012;-60
2024/01/31 10:17:35;;;;;;;;;;;5.60;99.90;;;;;;5017959;28;20347;-59
2024/01/31 10:20:06;;;;;;;;;;;5.70;99.90;;;;;;5019417;28;20382;-59
2024/01/31 10:22:33;;;;;;;;;;;5.70;99.90;;;;;;5020331;28;20376;-59
2024/01/31 10:24:58;;;;;;;;;;;5.70;99.90;;;;;;5021872;28;20060;-59
2024/01/31 10:27:24;;;;;;;;;;;5.70;99.90;;;;;;5001130;28;19961;-59
2024/01/31 10:29:52;;;;;;;;;;;5.80;99.90;;;;;;5019825;28;19925;-60
2024/01/31 10:32:20;;;;;;;;;;;5.80;99.90;;;;;;5017176;28;19921;-60
2024/01/31 10:34:46;;;;;;;;;;;5.80;99.90;;;;;;5019627;28;19917;-60
2024/01/31 10:37:12;;;;;;;;;;;5.90;99.90;;;;;;5019744;28;19917;-59
2024/01/31 10:39:39;;;;;;;;;;;5.90;99.90;;;;;;5020975;28;20000;-58
2024/01/31 10:42:04;;;;;;;;;;;6.00;99.90;;;;;;5001316;28;19913;-59
2024/01/31 10:44:33;;;;;;;;;;;6.00;99.90;;;;;;5012301;28;20531;-59
2024/01/31 10:46:59;;;;;;;;;;;6.10;99.90;;;;;;5013305;28;20407;-60
2024/01/31 10:49:24;;;;;;;;;;;6.10;99.90;;;;;;5015650;28;19925;-59
2024/01/31 10:51:53;;;;;;;;;;;6.10;99.90;;;;;;5021368;28;20020;-58
2024/01/31 10:54:21;;;;;;;;;;;6.20;99.90;;;;;;5016756;28;19913;-59
2024/01/31 10:56:47;;;;;;;;;;;6.20;99.90;;;;;;5017090;28;20427;-58
2024/01/31 10:59:13;;;;;;;;;;;6.20;99.90;;;;;;5017909;28;20020;-58
2024/01/31 11:01:49;;;;;;;;;;;6.20;99.90;;;;;;5018849;28;19917;-60
2024/01/31 11:04:15;;;;;;;;;;;6.20;99.90;;;;;;5012579;28;19937;-59
2024/01/31 11:06:40;;;;;;;;;;;6.20;99.90;;;;;;5009635;28;20367;-58
2024/01/31 11:09:06;;;;;;;;;;;6.20;99.90;;;;;;5015277;28;19921;-60
2024/01/31 11:11:35;;;;;;;;;;;6.30;99.90;;;;;;5017786;28;19925;-59
2024/01/31 11:14:08;;;;;;;;;;;6.20;99.90;;;;;;4999925;28;20020;-59
2024/01/31 11:16:33;;;;;;;;;;;6.20;99.90;;;;;;5013182;28;19967;-60
2024/01/31 11:19:00;;;;;;;;;;;6.20;99.90;;;;;;5014408;28;20429;-60
2024/01/31 11:21:26;;;;;;;;;;;6.30;99.90;;;;;;5011515;28;19917;-59
2024/01/31 11:23:51;;;;;;;;;;;6.30;99.90;;;;;;5005315;28;19928;-59
2024/01/31 11:26:27;;;;;;;;;;;6.30;99.90;;;;;;5014102;28;19925;-59
2024/01/31 11:28:53;;;;;;;;;;;6.30;99.90;;;;;;5029398;28;19921;-60
2024/01/31 11:31:18;;;;;;;;;;;6.30;99.90;;;;;;5018408;28;19924;-57
2024/01/31 11:33:44;;;;;;;;;;;6.30;99.90;;;;;;5015192;28;19921;-59
2024/01/31 11:36:09;;;;;;;;;;;6.40;99.90;;;;;;5016534;28;20458;-58
2024/01/31 11:38:35;;;;;;;;;;;6.40;99.90;;;;;;5014308;28;19968;-58
2024/01/31 11:41:00;;;;;;;;;;;6.40;99.90;;;;;;5012524;28;19921;-60
2024/01/31 11:43:26;;;;;;;;;;;6.40;99.90;;;;;;5022010;28;20363;-58
2024/01/31 11:45:52;;;;;;;;;;;6.40;99.90;;;;;;5025047;28;20420;-58
2024/01/31 11:48:17;;;;;;;;;;;6.50;99.90;;;;;;5022685;28;19931;-59
2024/01/31 11:50:43;;;;;;;;;;;6.50;99.90;;;;;;5014744;28;19925;-62
2024/01/31 11:53:08;;;;;;;;;;;6.50;99.90;;;;;;5002042;28;19927;-61
2024/01/31 11:55:34;;;;;;;;;;;6.50;99.90;;;;;;5022697;28;20424;-61
2024/01/31 11:58:00;;;;;;;;;;;6.50;99.90;;;;;;5028106;28;19921;-60
2024/01/31 12:00:25;;;;;;;;;;;6.50;99.90;;;;;;5024066;28;19932;-60
2024/01/31 12:02:54;;;;;;;;;;;6.50;99.90;;;;;;5037075;28;19917;-61
2024/01/31 12:05:20;;;;;;;;;;;6.50;99.90;;;;;;5025273;28;19934;-60
2024/01/31 12:07:55;;;;;;;;;;;6.50;99.90;;;;;;5006894;28;20240;-62
2024/01/31 12:10:21;;;;;;;;;;;6.50;99.90;;;;;;5027686;28;19925;-60
2024/01/31 12:12:46;;;;;;;;;;;6.50;99.90;;;;;;5026743;28;19948;-60
2024/01/31 12:15:12;;;;;;;;;;;6.60;99.90;;;;;;5019876;28;20405;-59
2024/01/31 12:17:38;;;;;;;;;;;6.60;99.90;;;;;;5024623;28;19921;-60
2024/01/31 12:20:11;;;;;;;;;;;6.60;99.90;;;;;;5007916;28;20406;-60
2024/01/31 12:22:37;;;;;;;;;;;6.60;99.90;;;;;;5023286;28;19991;-60
2024/01/31 12:25:03;;;;;;;;;;;6.50;99.90;;;;;;5025285;28;19918;-61
2024/01/31 12:27:28;;;;;;;;;;;6.50;99.90;;;;;;5015652;28;20723;-62
2024/01/31 12:29:54;;;;;;;;;;;6.50;99.90;;;;;;5011169;28;19972;-63
2024/01/31 12:32:19;;;;;;;;;;;6.50;99.90;;;;;;5005059;28;19936;-62
2024/01/31 12:34:45;;;;;;;;;;;6.50;99.90;;;;;;5005782;28;19927;-63
2024/01/31 12:37:11;;;;;;;;;;;6.50;99.90;;;;;;5005667;28;19926;-64
2024/01/31 12:39:36;;;;;;;;;;;6.50;99.90;;;;;;5004988;28;20442;-63
2024/01/31 12:42:03;;;;;;;;;;;6.50;99.90;;;;;;4967266;28;20053;-63
2024/01/31 12:44:29;;;;;;;;;;;6.50;99.90;;;;;;5002388;28;20012;-62
2024/01/31 12:46:55;;;;;;;;;;;6.50;99.90;;;;;;5005471;28;20069;-63
2024/01/31 12:49:20;;;;;;;;;;;6.50;99.90;;;;;;5006349;28;19925;-63
2024/01/31 12:51:46;;;;;;;;;;;6.50;99.90;;;;;;5004139;28;19922;-62
2024/01/31 12:54:11;;;;;;;;;;;6.60;99.90;;;;;;4984295;28;20398;-63
2024/01/31 12:56:38;;;;;;;;;;;6.60;99.90;;;;;;5005323;28;20012;-63
2024/01/31 12:59:03;;;;;;;;;;;6.60;99.90;;;;;;4985135;28;19929;-62
2024/01/31 13:01:29;;;;;;;;;;;6.60;99.90;;;;;;5005440;28;20310;-62
2024/01/31 13:03:54;;;;;;;;;;;6.60;99.90;;;;;;5000278;28;19925;-62
2024/01/31 13:06:20;;;;;;;;;;;6.60;99.90;;;;;;4982490;28;19976;-63
2024/01/31 13:08:45;;;;;;;;;;;6.70;99.90;;;;;;5007221;28;20008;-62
2024/01/31 13:11:12;;;;;;;;;;;6.60;99.90;;;;;;4999990;28;19921;-62
2024/01/31 13:13:38;;;;;;;;;;;6.60;99.90;;;;;;5003249;28;19976;-64
2024/01/31 13:16:05;;;;;;;;;;;6.60;99.90;;;;;;4985463;28;19917;-62
2024/01/31 13:18:30;;;;;;;;;;;6.60;99.90;;;;;;5000464;28;19973;-62
2024/01/31 13:20:56;;;;;;;;;;;6.60;99.90;;;;;;5004674;28;20327;-61
2024/01/31 13:23:21;;;;;;;;;;;6.70;99.90;;;;;;5002163;28;19968;-63
2024/01/31 13:25:47;;;;;;;;;;;6.70;99.90;;;;;;4999673;28;20271;-63
2024/01/31 13:28:15;;;;;;;;;;;6.70;99.90;;;;;;5010087;28;19921;-63
2024/01/31 13:30:40;;;;;;;;;;;6.70;99.90;;;;;;5022065;28;19921;-61
2024/01/31 13:33:06;;;;;;;;;;;6.70;99.90;;;;;;5021577;28;19948;-61
2024/01/31 13:35:31;;;;;;;;;;;6.70;99.90;;;;;;5024957;28;19917;-63
2024/01/31 13:37:57;;;;;;;;;;;6.70;99.90;;;;;;5021675;28;19925;-61
2024/01/31 13:40:23;;;;;;;;;;;6.60;99.90;;;;;;5023446;28;19923;-62
2024/01/31 13:42:51;;;;;;;;;;;6.70;99.90;;;;;;5015516;28;19917;-61
2024/01/31 13:45:16;;;;;;;;;;;6.60;99.90;;;;;;5001598;28;19947;-64
2024/01/31 13:47:42;;;;;;;;;;;6.70;99.90;;;;;;5007473;28;19917;-61
2024/01/31 13:50:08;;;;;;;;;;;6.70;99.90;;;;;;5025790;28;19925;-61
2024/01/31 13:52:33;;;;;;;;;;;6.70;99.90;;;;;;5026042;28;19991;-61
2024/01/31 13:54:59;;;;;;;;;;;6.70;99.90;;;;;;5025285;28;19917;-62
2024/01/31 13:57:25;;;;;;;;;;;6.70;99.90;;;;;;5023740;28;19975;-61
2024/01/31 13:59:50;;;;;;;;;;;6.70;99.90;;;;;;5020139;28;20335;-63
2024/01/31 14:02:16;;;;;;;;;;;6.70;99.90;;;;;;5003016;28;19979;-61
2024/01/31 14:04:41;;;;;;;;;;;6.70;99.90;;;;;;5023277;28;19929;-61
2024/01/31 14:07:07;;;;;;;;;;;6.70;99.90;;;;;;5024738;28;19925;-62
2024/01/31 14:09:32;;;;;;;;;;;6.80;99.90;;;;;;5006127;28;20265;-61
2024/01/31 14:11:59;;;;;;;;;;;6.70;99.90;;;;;;5017449;28;19925;-63
2024/01/31 14:14:25;;;;;;;;;;;6.60;99.90;;;;;;4998387;28;20127;-62
2024/01/31 14:16:51;;;;;;;;;;;6.60;99.90;;;;;;5007734;28;19925;-62
2024/01/31 14:19:17;;;;;;;;;;;6.60;99.90;;;;;;5025465;28;19921;-61
2024/01/31 14:21:42;;;;;;;;;;;6.60;99.90;;;;;;5024179;28;19921;-61
2024/01/31 14:24:08;;;;;;;;;;;6.60;99.90;;;;;;5021159;28;19921;-61